sensor_id;sensor_type;location;lat;lon;timestamp;pressure;altitude;pressure_sealevel;temperature;humidity
80184;BME280;69682;52.138;5.440;2024-01-15T00:00:31;100381.22;;;1.08;95.64
80184;BME280;69682;52.138;5.440;2024-01-15T00:02:58;100376.91;;;1.07;95.43
80184;BME280;69682;52.138;5.440;2024-01-15T00:05:25;100375.41;;;1.01;94.93
80184;BME280;69682;52.138;5.440;2024-01-15T00:07:54;100372.00;;;0.99;95.70
80184;BME280;69682;52.138;5.440;2024-01-15T00:10:36;100372.06;;;0.98;94.96
80184;BME280;69682;52.138;5.440;2024-01-15T00:13:03;100373.19;;;0.92;95.00
80184;BME280;69682;52.138;5.440;2024-01-15T00:15:30;100370.63;;;0.90;95.46
80184;BME280;69682;52.138;5.440;2024-01-15T00:17:57;100367.38;;;0.85;95.00
80184;BME280;69682;52.138;5.440;2024-01-15T00:20:23;100363.13;;;0.83;95.60
80184;BME280;69682;52.138;5.440;2024-01-15T00:22:53;100357.91;;;0.81;95.47
80184;BME280;69682;52.138;5.440;2024-01-15T00:25:19;100354.63;;;0.76;95.11
80184;BME280;69682;52.138;5.440;2024-01-15T00:27:46;100354.78;;;0.73;95.76
80184;BME280;69682;52.138;5.440;2024-01-15T00:30:13;100351.38;;;0.71;95.41
80184;BME280;69682;52.138;5.440;2024-01-15T00:32:40;100354.06;;;0.70;95.65
80184;BME280;69682;52.138;5.440;2024-01-15T00:35:09;100351.56;;;0.66;95.37
80184;BME280;69682;52.138;5.440;2024-01-15T00:37:35;100345.63;;;0.63;95.82
80184;BME280;69682;52.138;5.440;2024-01-15T00:40:03;100343.97;;;0.60;95.67
80184;BME280;69682;52.138;5.440;2024-01-15T00:42:42;100344.03;;;0.59;95.62
80184;BME280;69682;52.138;5.440;2024-01-15T00:45:09;100334.47;;;0.58;95.16
80184;BME280;69682;52.138;5.440;2024-01-15T00:47:36;100335.41;;;0.57;94.96
80184;BME280;69682;52.138;5.440;2024-01-15T00:50:03;100327.59;;;0.55;95.06
80184;BME280;69682;52.138;5.440;2024-01-15T00:52:30;100317.31;;;0.51;94.70
80184;BME280;69682;52.138;5.440;2024-01-15T00:54:56;100318.44;;;0.45;95.04
80184;BME280;69682;52.138;5.440;2024-01-15T00:57:23;100328.13;;;0.43;94.92
80184;BME280;69682;52.138;5.440;2024-01-15T00:59:50;100326.41;;;0.42;95.18
80184;BME280;69682;52.138;5.440;2024-01-15T01:02:16;100323.84;;;0.40;94.80
80184;BME280;69682;52.138;5.440;2024-01-15T01:04:43;100333.56;;;0.38;95.26
80184;BME280;69682;52.138;5.440;2024-01-15T01:07:09;100317.91;;;0.37;94.53
80184;BME280;69682;52.138;5.440;2024-01-15T01:09:36;100316.97;;;0.38;94.43
80184;BME280;69682;52.138;5.440;2024-01-15T01:12:03;100319.53;;;0.39;94.85
80184;BME280;69682;52.138;5.440;2024-01-15T01:14:29;100308.22;;;0.39;94.81
80184;BME280;69682;52.138;5.440;2024-01-15T01:16:57;100305.63;;;0.37;94.45
80184;BME280;69682;52.138;5.440;2024-01-15T01:19:23;100315.28;;;0.37;94.36
80184;BME280;69682;52.138;5.440;2024-01-15T01:21:52;100299.59;;;0.35;94.39
80184;BME280;69682;52.138;5.440;2024-01-15T01:24:18;100303.09;;;0.36;94.11
80184;BME280;69682;52.138;5.440;2024-01-15T01:26:45;100304.78;;;0.37;93.76
80184;BME280;69682;52.138;5.440;2024-01-15T01:29:13;100316.13;;;0.37;94.30
80184;BME280;69682;52.138;5.440;2024-01-15T01:31:43;100312.59;;;0.38;94.12
80184;BME280;69682;52.138;5.440;2024-01-15T01:34:13;100312.53;;;0.40;94.17
80184;BME280;69682;52.138;5.440;2024-01-15T01:36:41;100319.47;;;0.41;93.51
80184;BME280;69682;52.138;5.440;2024-01-15T01:39:07;100316.91;;;0.39;93.63
80184;BME280;69682;52.138;5.440;2024-01-15T01:41:34;100316.91;;;0.39;93.76
80184;BME280;69682;52.138;5.440;2024-01-15T01:44:00;100311.59;;;0.41;93.72
80184;BME280;69682;52.138;5.440;2024-01-15T01:46:28;100308.84;;;0.44;93.57
80184;BME280;69682;52.138;5.440;2024-01-15T01:48:55;100305.31;;;0.45;93.12
80184;BME280;69682;52.138;5.440;2024-01-15T01:51:23;100306.16;;;0.45;93.25
80184;BME280;69682;52.138;5.440;2024-01-15T01:53:51;100304.41;;;0.46;93.28
80184;BME280;69682;52.138;5.440;2024-01-15T01:56:18;100307.09;;;0.44;93.49
80184;BME280;69682;52.138;5.440;2024-01-15T01:58:45;100306.16;;;0.45;93.37
80184;BME280;69682;52.138;5.440;2024-01-15T02:01:12;100310.56;;;0.45;93.60
80184;BME280;69682;52.138;5.440;2024-01-15T02:03:40;100305.31;;;0.45;93.54
80184;BME280;69682;52.138;5.440;2024-01-15T02:06:07;100308.72;;;0.47;93.16
80184;BME280;69682;52.138;5.440;2024-01-15T02:08:34;100304.91;;;0.54;93.39
80184;BME280;69682;52.138;5.440;2024-01-15T02:11:01;100322.16;;;0.60;93.29
80184;BME280;69682;52.138;5.440;2024-01-15T02:13:28;100334.06;;;0.67;93.13
80184;BME280;69682;52.138;5.440;2024-01-15T02:15:55;100360.00;;;0.73;93.43
80184;BME280;69682;52.138;5.440;2024-01-15T02:18:22;100344.28;;;0.73;93.84
80184;BME280;69682;52.138;5.440;2024-01-15T02:20:49;100330.59;;;0.66;94.02
80184;BME280;69682;52.138;5.440;2024-01-15T02:23:15;100322.88;;;0.63;94.58
80184;BME280;69682;52.138;5.440;2024-01-15T02:25:44;100322.16;;;0.60;94.18
80184;BME280;69682;52.138;5.440;2024-01-15T02:28:15;100311.53;;;0.63;94.73
80184;BME280;69682;52.138;5.440;2024-01-15T02:30:43;100310.69;;;0.62;94.65
80184;BME280;69682;52.138;5.440;2024-01-15T02:33:15;100313.22;;;0.64;94.43
80184;BME280;69682;52.138;5.440;2024-01-15T02:35:45;100311.31;;;0.67;94.53
80184;BME280;69682;52.138;5.440;2024-01-15T02:38:13;100320.06;;;0.68;95.14
80184;BME280;69682;52.138;5.440;2024-01-15T02:40:39;100310.47;;;0.67;94.70
80184;BME280;69682;52.138;5.440;2024-01-15T02:43:06;100310.41;;;0.68;95.09
80184;BME280;69682;52.138;5.440;2024-01-15T02:45:33;100306.88;;;0.70;94.81
80184;BME280;69682;52.138;5.440;2024-01-15T02:48:00;100297.31;;;0.68;95.38
80184;BME280;69682;52.138;5.440;2024-01-15T02:50:26;100297.22;;;0.70;94.92
80184;BME280;69682;52.138;5.440;2024-01-15T02:52:53;100302.41;;;0.72;95.22
80184;BME280;69682;52.138;5.440;2024-01-15T02:55:19;100305.88;;;0.72;95.19
80184;BME280;69682;52.138;5.440;2024-01-15T02:58:00;100297.03;;;0.75;95.17
80184;BME280;69682;52.138;5.440;2024-01-15T03:00:29;100296.09;;;0.76;95.38
80184;BME280;69682;52.138;5.440;2024-01-15T03:02:56;100302.28;;;0.75;94.84
80184;BME280;69682;52.138;5.440;2024-01-15T03:05:22;100295.22;;;0.77;95.06
80184;BME280;69682;52.138;5.440;2024-01-15T03:07:49;100292.59;;;0.77;94.96
80184;BME280;69682;52.138;5.440;2024-01-15T03:10:16;100291.72;;;0.76;95.79
80184;BME280;69682;52.138;5.440;2024-01-15T03:12:42;100287.34;;;0.77;95.40
80184;BME280;69682;52.138;5.440;2024-01-15T03:15:09;100290.72;;;0.79;95.01
80184;BME280;69682;52.138;5.440;2024-01-15T03:17:36;100282.81;;;0.80;95.44
80184;BME280;69682;52.138;5.440;2024-01-15T03:20:03;100290.69;;;0.80;94.98
80184;BME280;69682;52.138;5.440;2024-01-15T03:22:30;100289.03;;;0.78;95.18
80184;BME280;69682;52.138;5.440;2024-01-15T03:24:57;100291.72;;;0.76;95.05
80184;BME280;69682;52.138;5.440;2024-01-15T03:27:24;100294.56;;;0.72;95.56
80184;BME280;69682;52.138;5.440;2024-01-15T03:29:52;100299.09;;;0.68;95.56
80184;BME280;69682;52.138;5.440;2024-01-15T03:32:19;100302.69;;;0.65;95.25
80184;BME280;69682;52.138;5.440;2024-01-15T03:34:46;100316.66;;;0.66;95.46
80184;BME280;69682;52.138;5.440;2024-01-15T03:37:15;100317.56;;;0.65;95.84
80184;BME280;69682;52.138;5.440;2024-01-15T03:39:42;100332.38;;;0.66;95.72
80184;BME280;69682;52.138;5.440;2024-01-15T03:42:13;100329.66;;;0.67;95.75
80184;BME280;69682;52.138;5.440;2024-01-15T03:44:40;100319.97;;;0.70;96.06
80184;BME280;69682;52.138;5.440;2024-01-15T03:47:07;100315.56;;;0.70;96.21
80184;BME280;69682;52.138;5.440;2024-01-15T03:49:41;100308.56;;;0.71;95.88
80184;BME280;69682;52.138;5.440;2024-01-15T03:52:08;100298.16;;;0.69;96.58
80184;BME280;69682;52.138;5.440;2024-01-15T03:54:34;100285.97;;;0.68;96.47
80184;BME280;69682;52.138;5.440;2024-01-15T03:57:01;100280.00;;;0.64;96.40
80184;BME280;69682;52.138;5.440;2024-01-15T03:59:28;100271.41;;;0.61;96.14
80184;BME280;69682;52.138;5.440;2024-01-15T04:01:55;100263.69;;;0.58;96.59
80184;BME280;69682;52.138;5.440;2024-01-15T04:04:27;100261.34;;;0.52;96.47
80184;BME280;69682;52.138;5.440;2024-01-15T04:07:12;100260.56;;;0.50;96.45
80184;BME280;69682;52.138;5.440;2024-01-15T04:09:42;100258.22;;;0.43;96.34
80184;BME280;69682;52.138;5.440;2024-01-15T04:12:08;100250.47;;;0.40;96.46
80184;BME280;69682;52.138;5.440;2024-01-15T04:14:35;100252.53;;;0.34;96.47
80184;BME280;69682;52.138;5.440;2024-01-15T04:17:02;100257.81;;;0.32;96.43
80184;BME280;69682;52.138;5.440;2024-01-15T04:19:44;100249.97;;;0.32;96.84
80184;BME280;69682;52.138;5.440;2024-01-15T04:22:11;100248.34;;;0.30;96.81
80184;BME280;69682;52.138;5.440;2024-01-15T04:24:38;100246.63;;;0.29;96.83
80184;BME280;69682;52.138;5.440;2024-01-15T04:27:05;100242.22;;;0.29;97.06
80184;BME280;69682;52.138;5.440;2024-01-15T04:29:32;100245.72;;;0.30;96.75
80184;BME280;69682;52.138;5.440;2024-01-15T04:32:01;100239.59;;;0.29;97.06
80184;BME280;69682;52.138;5.440;2024-01-15T04:34:28;100237.91;;;0.28;97.19
80184;BME280;69682;52.138;5.440;2024-01-15T04:36:55;100236.22;;;0.27;96.66
80184;BME280;69682;52.138;5.440;2024-01-15T04:39:21;100235.38;;;0.27;96.88
80184;BME280;69682;52.138;5.440;2024-01-15T04:41:48;100224.91;;;0.27;96.91
80184;BME280;69682;52.138;5.440;2024-01-15T04:44:15;100225.78;;;0.26;96.59
80184;BME280;69682;52.138;5.440;2024-01-15T04:46:42;100225.78;;;0.26;96.82
80184;BME280;69682;52.138;5.440;2024-01-15T04:49:11;100223.19;;;0.26;97.31
80184;BME280;69682;52.138;5.440;2024-01-15T04:51:37;100225.75;;;0.27;96.90
80184;BME280;69682;52.138;5.440;2024-01-15T04:54:04;100216.97;;;0.28;97.13
80184;BME280;69682;52.138;5.440;2024-01-15T04:56:31;100220.44;;;0.29;96.73
80184;BME280;69682;52.138;5.440;2024-01-15T04:58:57;100223.97;;;0.28;96.73
80184;BME280;69682;52.138;5.440;2024-01-15T05:01:24;100231.97;;;0.25;97.10
80184;BME280;69682;52.138;5.440;2024-01-15T05:03:51;100226.78;;;0.23;97.13
80184;BME280;69682;52.138;5.440;2024-01-15T05:06:17;100231.13;;;0.24;96.76
80184;BME280;69682;52.138;5.440;2024-01-15T05:08:44;100223.97;;;0.28;96.72
80184;BME280;69682;52.138;5.440;2024-01-15T05:11:10;100222.19;;;0.28;96.89
80184;BME280;69682;52.138;5.440;2024-01-15T05:13:43;100220.28;;;0.32;97.09
80184;BME280;69682;52.138;5.440;2024-01-15T05:16:09;100214.16;;;0.33;97.24
80184;BME280;69682;52.138;5.440;2024-01-15T05:18:36;100207.06;;;0.35;97.43
80184;BME280;69682;52.138;5.440;2024-01-15T05:21:06;100208.78;;;0.36;97.09
80184;BME280;69682;52.138;5.440;2024-01-15T05:23:33;100208.78;;;0.36;97.24
80184;BME280;69682;52.138;5.440;2024-01-15T05:26:00;100208.91;;;0.33;97.33
80184;BME280;69682;52.138;5.440;2024-01-15T05:28:27;100208.97;;;0.31;97.33
80184;BME280;69682;52.138;5.440;2024-01-15T05:30:54;100208.13;;;0.31;96.90
80184;BME280;69682;52.138;5.440;2024-01-15T05:33:24;100204.56;;;0.32;97.12
80184;BME280;69682;52.138;5.440;2024-01-15T05:35:51;100217.66;;;0.32;96.89
80184;BME280;69682;52.138;5.440;2024-01-15T05:38:18;100214.16;;;0.33;96.93
80184;BME280;69682;52.138;5.440;2024-01-15T05:40:45;100215.84;;;0.34;96.77
80184;BME280;69682;52.138;5.440;2024-01-15T05:43:11;100226.31;;;0.34;96.80
80184;BME280;69682;52.138;5.440;2024-01-15T05:45:38;100213.94;;;0.37;97.00
80184;BME280;69682;52.138;5.440;2024-01-15T05:48:05;100218.28;;;0.38;96.89
80184;BME280;69682;52.138;5.440;2024-01-15T05:50:32;100216.41;;;0.40;96.82
80184;BME280;69682;52.138;5.440;2024-01-15T05:52:58;100218.91;;;0.43;97.67
80184;BME280;69682;52.138;5.440;2024-01-15T05:55:25;100222.38;;;0.44;96.96
80184;BME280;69682;52.138;5.440;2024-01-15T05:58:05;100229.19;;;0.48;97.55
80184;BME280;69682;52.138;5.440;2024-01-15T06:00:32;100233.50;;;0.49;97.59
80184;BME280;69682;52.138;5.440;2024-01-15T06:03:02;100234.34;;;0.50;97.78
80184;BME280;69682;52.138;5.440;2024-01-15T06:05:29;100232.59;;;0.50;97.39
80184;BME280;69682;52.138;5.440;2024-01-15T06:07:58;100234.28;;;0.51;97.39
80184;BME280;69682;52.138;5.440;2024-01-15T06:10:25;100241.22;;;0.52;97.50
80184;BME280;69682;52.138;5.440;2024-01-15T06:12:55;100248.38;;;0.49;97.57
80184;BME280;69682;52.138;5.440;2024-01-15T06:15:21;100220.69;;;0.43;97.84
80184;BME280;69682;52.138;5.440;2024-01-15T06:17:48;100223.84;;;0.31;97.83
80184;BME280;69682;52.138;5.440;2024-01-15T06:20:15;100218.03;;;0.24;96.84
80184;BME280;69682;52.138;5.440;2024-01-15T06:22:43;100205.97;;;0.20;97.62
80184;BME280;69682;52.138;5.440;2024-01-15T06:25:10;100210.56;;;0.15;97.33
80184;BME280;69682;52.138;5.440;2024-01-15T06:27:36;100210.63;;;0.13;97.90
80184;BME280;69682;52.138;5.440;2024-01-15T06:30:04;100207.94;;;0.15;97.47
80184;BME280;69682;52.138;5.440;2024-01-15T06:32:30;100208.00;;;0.13;97.78
80184;BME280;69682;52.138;5.440;2024-01-15T06:34:57;100209.97;;;0.08;97.39
80184;BME280;69682;52.138;5.440;2024-01-15T06:37:26;100207.56;;;0.04;97.64
80184;BME280;69682;52.138;5.440;2024-01-15T06:39:53;100205.66;;;0.07;97.79
80184;BME280;69682;52.138;5.440;2024-01-15T06:42:50;100209.97;;;0.08;97.70
80184;BME280;69682;52.138;5.440;2024-01-15T06:45:18;100202.91;;;0.10;97.98
80184;BME280;69682;52.138;5.440;2024-01-15T06:47:45;100207.28;;;0.10;98.12
80184;BME280;69682;52.138;5.440;2024-01-15T06:50:11;100200.31;;;0.09;98.00
80184;BME280;69682;52.138;5.440;2024-01-15T06:52:38;100195.97;;;0.09;98.23
80184;BME280;69682;52.138;5.440;2024-01-15T06:55:05;100197.72;;;0.09;98.23
80184;BME280;69682;52.138;5.440;2024-01-15T06:57:32;100197.00;;;0.05;98.13
80184;BME280;69682;52.138;5.440;2024-01-15T06:59:59;100192.69;;;0.04;97.95
80184;BME280;69682;52.138;5.440;2024-01-15T07:02:25;100190.06;;;0.04;98.32
80184;BME280;69682;52.138;5.440;2024-01-15T07:04:59;100194.38;;;0.05;98.29
80184;BME280;69682;52.138;5.440;2024-01-15T07:07:34;100191.75;;;0.05;98.13
80184;BME280;69682;52.138;5.440;2024-01-15T07:10:01;100194.38;;;0.05;98.49
80184;BME280;69682;52.138;5.440;2024-01-15T07:12:30;100195.09;;;0.09;98.40
80184;BME280;69682;52.138;5.440;2024-01-15T07:14:56;100194.19;;;0.10;98.55
80184;BME280;69682;52.138;5.440;2024-01-15T07:17:23;100212.41;;;0.13;98.56
80184;BME280;69682;52.138;5.440;2024-01-15T07:19:50;100220.03;;;0.17;98.44
80184;BME280;69682;52.138;5.440;2024-01-15T07:22:16;100239.25;;;0.18;98.72
80184;BME280;69682;52.138;5.440;2024-01-15T07:24:43;100247.28;;;0.13;98.37
80184;BME280;69682;52.138;5.440;2024-01-15T07:27:10;100237.78;;;0.11;98.65
80184;BME280;69682;52.138;5.440;2024-01-15T07:29:37;100218.75;;;0.07;98.48
80184;BME280;69682;52.138;5.440;2024-01-15T07:32:04;100203.16;;;0.04;97.95
80184;BME280;69682;52.138;5.440;2024-01-15T07:34:31;100211.88;;;0.05;98.06
80184;BME280;69682;52.138;5.440;2024-01-15T07:36:58;100212.09;;;0.00;97.83
80184;BME280;69682;52.138;5.440;2024-01-15T07:39:25;100207.59;;;0.02;98.15
80184;BME280;69682;52.138;5.440;2024-01-15T07:41:52;100206.84;;;0.00;98.17
80184;BME280;69682;52.138;5.440;2024-01-15T07:44:21;100206.72;;;0.03;97.99
80184;BME280;69682;52.138;5.440;2024-01-15T07:46:50;100205.84;;;0.03;97.74
80184;BME280;69682;52.138;5.440;2024-01-15T07:49:16;100225.88;;;0.04;97.93
80184;BME280;69682;52.138;5.440;2024-01-15T07:51:43;100227.53;;;0.06;98.03
80184;BME280;69682;52.138;5.440;2024-01-15T07:54:11;100237.91;;;0.08;97.96
80184;BME280;69682;52.138;5.440;2024-01-15T07:56:58;100226.38;;;0.12;98.36
80184;BME280;69682;52.138;5.440;2024-01-15T07:59:26;100224.56;;;0.14;98.45
80184;BME280;69682;52.138;5.440;2024-01-15T08:01:53;100221.09;;;0.13;98.49
80184;BME280;69682;52.138;5.440;2024-01-15T08:04:20;100231.56;;;0.13;98.14
80184;BME280;69682;52.138;5.440;2024-01-15T08:06:48;100217.56;;;0.14;98.28
80184;BME280;69682;52.138;5.440;2024-01-15T08:09:15;100218.53;;;0.12;98.04
80184;BME280;69682;52.138;5.440;2024-01-15T08:11:42;100214.16;;;0.12;98.05
80184;BME280;69682;52.138;5.440;2024-01-15T08:14:10;100198.63;;;0.08;97.95
80184;BME280;69682;52.138;5.440;2024-01-15T08:16:37;100202.94;;;0.09;98.08
80184;BME280;69682;52.138;5.440;2024-01-15T08:19:04;100197.72;;;0.09;98.28
80184;BME280;69682;52.138;5.440;2024-01-15T08:21:32;100210.81;;;0.09;98.17
80184;BME280;69682;52.138;5.440;2024-01-15T08:24:00;100205.66;;;0.07;98.25
80184;BME280;69682;52.138;5.440;2024-01-15T08:26:27;100215.28;;;0.07;98.10
80184;BME280;69682;52.138;5.440;2024-01-15T08:28:53;100218.78;;;0.06;98.03
80184;BME280;69682;52.138;5.440;2024-01-15T08:31:20;100220.69;;;0.02;98.21
80184;BME280;69682;52.138;5.440;2024-01-15T08:33:47;100235.56;;;0.02;98.56
80184;BME280;69682;52.138;5.440;2024-01-15T08:36:13;100232.09;;;0.01;98.14
80184;BME280;69682;52.138;5.440;2024-01-15T08:38:42;100218.22;;;-0.01;98.27
80184;BME280;69682;52.138;5.440;2024-01-15T08:41:09;100211.19;;;-0.01;98.09
80184;BME280;69682;52.138;5.440;2024-01-15T08:43:36;100212.84;;;0.02;98.50
80184;BME280;69682;52.138;5.440;2024-01-15T08:46:02;100215.41;;;0.04;98.27
80184;BME280;69682;52.138;5.440;2024-01-15T08:48:30;100207.41;;;0.07;98.25
80184;BME280;69682;52.138;5.440;2024-01-15T08:50:56;100217.63;;;0.13;98.31
80184;BME280;69682;52.138;5.440;2024-01-15T08:53:23;100215.81;;;0.15;97.89
80184;BME280;69682;52.138;5.440;2024-01-15T08:55:50;100218.34;;;0.16;97.44
80184;BME280;69682;52.138;5.440;2024-01-15T08:58:17;100210.44;;;0.18;97.55
80184;BME280;69682;52.138;5.440;2024-01-15T09:00:52;100226.16;;;0.18;97.53
80184;BME280;69682;52.138;5.440;2024-01-15T09:03:19;100223.59;;;0.16;97.33
80184;BME280;69682;52.138;5.440;2024-01-15T09:05:46;100226.16;;;0.18;97.35
80184;BME280;69682;52.138;5.440;2024-01-15T09:08:12;100225.13;;;0.20;97.22
80184;BME280;69682;52.138;5.440;2024-01-15T09:10:39;100234.63;;;0.23;97.23
80184;BME280;69682;52.138;5.440;2024-01-15T09:13:06;100238.75;;;0.29;97.50
80184;BME280;69682;52.138;5.440;2024-01-15T09:15:32;100243.16;;;0.28;96.97
80184;BME280;69682;52.138;5.440;2024-01-15T09:17:59;100246.56;;;0.30;96.85
80184;BME280;69682;52.138;5.440;2024-01-15T09:20:29;100232.63;;;0.30;96.62
80184;BME280;69682;52.138;5.440;2024-01-15T09:22:56;100223.88;;;0.29;96.36
80184;BME280;69682;52.138;5.440;2024-01-15T09:25:23;100211.72;;;0.28;96.62
80184;BME280;69682;52.138;5.440;2024-01-15T09:27:52;100220.38;;;0.30;96.95
80184;BME280;69682;52.138;5.440;2024-01-15T09:30:21;100217.75;;;0.30;96.93
80184;BME280;69682;52.138;5.440;2024-01-15T09:32:48;100230.78;;;0.32;96.58
80184;BME280;69682;52.138;5.440;2024-01-15T09:35:15;100225.63;;;0.30;96.69
80184;BME280;69682;52.138;5.440;2024-01-15T09:37:42;100222.06;;;0.31;96.67
80184;BME280;69682;52.138;5.440;2024-01-15T09:40:14;100220.44;;;0.29;96.87
80184;BME280;69682;52.138;5.440;2024-01-15T09:42:42;100218.50;;;0.32;96.62
80184;BME280;69682;52.138;5.440;2024-01-15T09:45:09;100216.56;;;0.37;96.88
80184;BME280;69682;52.138;5.440;2024-01-15T09:47:36;100223.56;;;0.37;96.76
80184;BME280;69682;52.138;5.440;2024-01-15T09:50:09;100221.88;;;0.36;96.73
80184;BME280;69682;52.138;5.440;2024-01-15T09:52:36;100218.50;;;0.32;96.69
80184;BME280;69682;52.138;5.440;2024-01-15T09:55:03;100221.34;;;0.28;96.68
80184;BME280;69682;52.138;5.440;2024-01-15T09:57:32;100224.91;;;0.27;96.64
80184;BME280;69682;52.138;5.440;2024-01-15T10:00:01;100221.28;;;0.29;97.19
80184;BME280;69682;52.138;5.440;2024-01-15T10:02:31;100225.75;;;0.27;96.65
80184;BME280;69682;52.138;5.440;2024-01-15T10:04:57;100233.59;;;0.27;96.83
80184;BME280;69682;52.138;5.440;2024-01-15T10:07:25;100236.81;;;0.34;97.09
80184;BME280;69682;52.138;5.440;2024-01-15T10:09:52;100239.09;;;0.41;97.13
80184;BME280;69682;52.138;5.440;2024-01-15T10:12:21;100248.25;;;0.52;97.27
80184;BME280;69682;52.138;5.440;2024-01-15T10:14:50;100240.31;;;0.53;97.04
80184;BME280;69682;52.138;5.440;2024-01-15T10:17:17;100216.78;;;0.52;96.69
80184;BME280;69682;52.138;5.440;2024-01-15T10:19:47;100216.97;;;0.47;96.59
80184;BME280;69682;52.138;5.440;2024-01-15T10:22:19;100230.97;;;0.48;97.06
80184;BME280;69682;52.138;5.440;2024-01-15T10:24:46;100233.31;;;0.54;96.92
80184;BME280;69682;52.138;5.440;2024-01-15T10:27:15;100243.44;;;0.61;96.65
80184;BME280;69682;52.138;5.440;2024-01-15T10:29:42;100240.75;;;0.63;96.65
80184;BME280;69682;52.138;5.440;2024-01-15T10:32:11;100249.56;;;0.62;97.22
80184;BME280;69682;52.138;5.440;2024-01-15T10:34:39;100239.13;;;0.60;97.31
80184;BME280;69682;52.138;5.440;2024-01-15T10:37:10;100232.25;;;0.58;96.77
80184;BME280;69682;52.138;5.440;2024-01-15T10:39:37;100238.56;;;0.54;96.88
80184;BME280;69682;52.138;5.440;2024-01-15T10:42:05;100233.38;;;0.52;97.00
80184;BME280;69682;52.138;5.440;2024-01-15T10:44:33;100225.63;;;0.49;96.78
80184;BME280;69682;52.138;5.440;2024-01-15T10:47:01;100231.69;;;0.51;97.39
80184;BME280;69682;52.138;5.440;2024-01-15T10:49:53;100233.16;;;0.57;97.13
80184;BME280;69682;52.138;5.440;2024-01-15T10:52:23;100235.66;;;0.60;97.09
80184;BME280;69682;52.138;5.440;2024-01-15T10:54:52;100235.56;;;0.61;97.43
80184;BME280;69682;52.138;5.440;2024-01-15T10:57:21;100250.03;;;0.70;97.33
80184;BME280;69682;52.138;5.440;2024-01-15T10:59:49;100251.47;;;0.77;96.98
80184;BME280;69682;52.138;5.440;2024-01-15T11:02:15;100261.75;;;0.82;96.79
80184;BME280;69682;52.138;5.440;2024-01-15T11:04:42;100253.75;;;0.85;96.97
80184;BME280;69682;52.138;5.440;2024-01-15T11:07:10;100257.84;;;0.90;96.85
80184;BME280;69682;52.138;5.440;2024-01-15T11:09:38;100262.97;;;0.94;96.64
80184;BME280;69682;52.138;5.440;2024-01-15T11:12:10;100266.38;;;0.96;96.86
80184;BME280;69682;52.138;5.440;2024-01-15T11:14:41;100268.00;;;0.98;97.49
80184;BME280;69682;52.138;5.440;2024-01-15T11:17:11;100268.06;;;0.97;96.86
80184;BME280;69682;52.138;5.440;2024-01-15T11:22:09;100269.06;;;0.94;97.24
80184;BME280;69682;52.138;5.440;2024-01-15T11:24:38;100272.59;;;0.93;96.94
80184;BME280;69682;52.138;5.440;2024-01-15T11:27:07;100269.13;;;0.93;96.59
80184;BME280;69682;52.138;5.440;2024-01-15T11:29:36;100273.44;;;0.94;97.08
80184;BME280;69682;52.138;5.440;2024-01-15T11:32:09;100265.44;;;0.97;96.83
80184;BME280;69682;52.138;5.440;2024-01-15T11:34:56;100258.31;;;1.00;97.03
80184;BME280;69682;52.138;5.440;2024-01-15T11:42:59;100261.75;;;1.20;96.96
80184;BME280;69682;52.138;5.440;2024-01-15T11:45:26;100263.59;;;1.18;96.34
80184;BME280;69682;52.138;5.440;2024-01-15T11:48:12;100268.50;;;1.25;96.23
80184;BME280;69682;52.138;5.440;2024-01-15T11:50:45;100266.50;;;1.30;95.97
80184;BME280;69682;52.138;5.440;2024-01-15T11:53:43;100276.22;;;1.28;96.41
80184;BME280;69682;52.138;5.440;2024-01-15T11:56:15;100277.91;;;1.29;95.86
80184;BME280;69682;52.138;5.440;2024-01-15T11:58:43;100271.53;;;1.35;95.95
80184;BME280;69682;52.138;5.440;2024-01-15T12:01:11;100267.16;;;1.35;95.27
80184;BME280;69682;52.138;5.440;2024-01-15T12:03:38;100268.75;;;1.38;95.71
80184;BME280;69682;52.138;5.440;2024-01-15T12:06:06;100278.06;;;1.45;95.34
80184;BME280;69682;52.138;5.440;2024-01-15T12:08:33;100284.34;;;1.60;95.25
80184;BME280;69682;52.138;5.440;2024-01-15T12:11:06;100289.59;;;1.60;94.85
80184;BME280;69682;52.138;5.440;2024-01-15T12:13:36;100287.03;;;1.58;94.78
80184;BME280;69682;52.138;5.440;2024-01-15T12:16:03;100304.81;;;1.53;95.13
80184;BME280;69682;52.138;5.440;2024-01-15T12:18:30;100315.44;;;1.50;94.23
80184;BME280;69682;52.138;5.440;2024-01-15T12:20:57;100312.38;;;1.41;94.90
80184;BME280;69682;52.138;5.440;2024-01-15T12:23:25;100314.66;;;1.29;94.04
80184;BME280;69682;52.138;5.440;2024-01-15T12:25:53;100317.09;;;1.15;94.54
80184;BME280;69682;52.138;5.440;2024-01-15T12:28:20;100312.22;;;1.06;95.04
80184;BME280;69682;52.138;5.440;2024-01-15T12:30:49;100320.09;;;1.06;95.17
80184;BME280;69682;52.138;5.440;2024-01-15T12:33:17;100313.94;;;1.07;95.12
80184;BME280;69682;52.138;5.440;2024-01-15T12:35:45;100314.66;;;1.10;95.68
80184;BME280;69682;52.138;5.440;2024-01-15T12:38:11;100327.63;;;1.13;95.82
80184;BME280;69682;52.138;5.440;2024-01-15T12:40:38;100332.81;;;1.15;95.37
80184;BME280;69682;52.138;5.440;2024-01-15T12:43:06;100343.38;;;1.13;95.70
80184;BME280;69682;52.138;5.440;2024-01-15T12:45:33;100329.69;;;1.07;95.46
80184;BME280;69682;52.138;5.440;2024-01-15T12:48:02;100323.88;;;1.00;95.36
80184;BME280;69682;52.138;5.440;2024-01-15T12:50:33;100317.19;;;0.93;95.09
80184;BME280;69682;52.138;5.440;2024-01-15T12:52:59;100310.25;;;0.92;95.29
80184;BME280;69682;52.138;5.440;2024-01-15T12:59:09;100322.56;;;0.90;95.07
80184;BME280;69682;52.138;5.440;2024-01-15T13:01:35;100320.94;;;0.87;95.44
80184;BME280;69682;52.138;5.440;2024-01-15T13:04:03;100320.94;;;0.87;95.22
80184;BME280;69682;52.138;5.440;2024-01-15T13:06:30;100312.31;;;0.85;94.88
80184;BME280;69682;52.138;5.440;2024-01-15T13:08:56;100321.06;;;0.84;95.46
80184;BME280;69682;52.138;5.440;2024-01-15T13:11:23;100328.09;;;0.84;95.03
80184;BME280;69682;52.138;5.440;2024-01-15T13:13:50;100332.53;;;0.82;95.53
80184;BME280;69682;52.138;5.440;2024-01-15T13:16:17;100335.25;;;0.80;95.72